createdAt,value
2019-01-11T00:00:44.525Z,95.00
2019-01-11T00:03:12.916Z,90.43
2019-01-11T00:05:41.311Z,95.30
2019-01-11T00:08:09.803Z,88.43
2019-01-11T00:10:38.403Z,99.10
2019-01-11T00:13:07.006Z,87.07
2019-01-11T00:15:35.652Z,93.83
2019-01-11T00:18:04.106Z,84.77
2019-01-11T00:20:32.728Z,91.47
2019-01-11T00:23:01.291Z,91.37
2019-01-11T00:25:29.870Z,89.23
2019-01-11T00:27:58.528Z,88.17
2019-01-11T00:30:26.932Z,90.73
2019-01-11T00:32:55.323Z,85.67
2019-01-11T00:35:24.065Z,96.90
2019-01-11T00:37:52.824Z,92.40
2019-01-11T00:40:21.215Z,97.20
2019-01-11T00:42:49.929Z,110.50
2019-01-11T00:45:18.348Z,184.87
2019-01-11T00:47:48.629Z,128.67
2019-01-11T00:50:17.370Z,152.00
2019-01-11T00:52:45.801Z,131.80
2019-01-11T00:55:14.208Z,120.73
2019-01-11T00:57:42.671Z,93.60
2019-01-11T01:00:14.439Z,102.17
2019-01-11T01:02:43.149Z,92.90
2019-01-11T01:05:11.607Z,91.13
2019-01-11T01:07:40.044Z,94.40
2019-01-11T01:10:08.513Z,84.53
2019-01-11T01:12:37.239Z,93.67
2019-01-11T01:15:09.147Z,90.30
2019-01-11T01:17:37.714Z,90.60
2019-01-11T01:20:09.578Z,98.93
2019-01-11T01:22:38.025Z,100.63
2019-01-11T01:25:06.704Z,96.83
2019-01-11T01:27:35.410Z,119.07
2019-01-11T01:30:06.871Z,88.43
2019-01-11T01:32:35.266Z,93.30
2019-01-11T01:35:03.920Z,93.53
2019-01-11T01:37:32.674Z,96.30
2019-01-11T01:40:01.243Z,81.83
2019-01-11T01:42:29.782Z,87.40
2019-01-11T01:44:58.387Z,84.03
2019-01-11T01:47:26.774Z,84.27
2019-01-11T01:49:56.318Z,83.87
2019-01-11T01:52:24.743Z,84.57
2019-01-11T01:54:53.375Z,78.60
2019-01-11T01:57:21.767Z,87.37
2019-01-11T01:59:50.197Z,84.53
2019-01-11T02:02:18.766Z,86.07
2019-01-11T02:04:47.154Z,83.83
2019-01-11T02:07:15.583Z,90.93
2019-01-11T02:09:43.984Z,81.17
2019-01-11T02:12:12.472Z,79.20
2019-01-11T02:14:42.466Z,89.63
2019-01-11T02:17:11.573Z,88.30
2019-01-11T02:19:39.962Z,82.97
2019-01-11T02:22:08.387Z,84.30
2019-01-11T02:24:36.784Z,79.90
2019-01-11T02:27:05.243Z,87.23
2019-01-11T02:29:33.684Z,85.00
2019-01-11T02:32:02.085Z,85.83
2019-01-11T02:34:30.478Z,90.33
2019-01-11T02:36:58.904Z,86.70
2019-01-11T02:39:27.291Z,86.37
2019-01-11T02:41:55.693Z,89.40
2019-01-11T02:44:24.141Z,96.80
2019-01-11T02:46:52.711Z,89.53
2019-01-11T02:49:21.108Z,99.57
2019-01-11T02:51:50.705Z,95.60
2019-01-11T02:54:19.336Z,97.00
2019-01-11T02:56:47.968Z,89.87
2019-01-11T02:59:16.651Z,84.27
2019-01-11T03:01:45.053Z,80.47
2019-01-11T03:04:13.441Z,94.90
2019-01-11T03:06:41.871Z,89.60
2019-01-11T03:09:10.265Z,86.97
2019-01-11T03:11:38.924Z,91.10
2019-01-11T03:14:07.353Z,93.67
2019-01-11T03:16:36.117Z,92.63
2019-01-11T03:19:04.701Z,90.30
2019-01-11T03:21:33.208Z,87.57
2019-01-11T03:24:01.605Z,85.90
2019-01-11T03:26:30.089Z,90.93
2019-01-11T03:28:58.508Z,96.47
2019-01-11T03:31:31.510Z,109.57
2019-01-11T03:33:59.903Z,101.93
2019-01-11T03:36:28.371Z,98.37
2019-01-11T03:38:56.775Z,95.10
2019-01-11T03:41:26.646Z,99.33
2019-01-11T03:43:55.096Z,99.00
2019-01-11T03:46:23.491Z,100.60
2019-01-11T03:48:52.295Z,91.53
2019-01-11T03:51:20.684Z,101.93
2019-01-11T03:53:49.177Z,99.90
2019-01-11T03:56:17.598Z,107.97
2019-01-11T03:58:46.171Z,93.57
2019-01-11T04:01:14.578Z,97.73
2019-01-11T04:03:43.139Z,96.87
2019-01-11T04:06:11.591Z,96.50
2019-01-11T04:08:39.993Z,109.47
2019-01-11T04:11:08.461Z,109.03
2019-01-11T04:13:36.891Z,93.57
2019-01-11T04:16:05.303Z,94.73
2019-01-11T04:18:34.463Z,101.00
2019-01-11T04:21:03.207Z,126.17
2019-01-11T04:23:31.831Z,108.97
2019-01-11T04:26:00.215Z,97.10
2019-01-11T04:28:28.684Z,101.47
2019-01-11T04:30:57.134Z,102.70
2019-01-11T04:33:25.540Z,103.13
2019-01-11T04:35:54.038Z,96.70
2019-01-11T04:38:22.681Z,98.87
2019-01-11T04:40:51.160Z,89.67
2019-01-11T04:43:19.973Z,91.60
2019-01-11T04:45:48.375Z,103.40
2019-01-11T04:48:16.831Z,100.43
2019-01-11T04:50:45.299Z,102.77
2019-01-11T04:53:14.009Z,103.43
2019-01-11T04:55:43.358Z,102.03
2019-01-11T04:58:12.395Z,94.70
2019-01-11T05:00:40.790Z,103.10
2019-01-11T05:03:09.231Z,104.43
2019-01-11T05:05:37.652Z,96.27
2019-01-11T05:08:06.093Z,96.33
2019-01-11T05:10:34.703Z,103.87
2019-01-11T05:13:04.862Z,92.40
2019-01-11T05:15:33.387Z,100.33
2019-01-11T05:18:01.816Z,100.93
2019-01-11T05:20:30.446Z,98.37
2019-01-11T05:22:59.317Z,95.40
2019-01-11T05:25:27.699Z,96.83
2019-01-11T05:27:56.434Z,87.77
2019-01-11T05:30:24.820Z,91.70
2019-01-11T05:32:53.212Z,91.10
2019-01-11T05:35:21.669Z,90.63
2019-01-11T05:37:50.315Z,95.83
2019-01-11T05:40:18.902Z,95.17
2019-01-11T05:42:47.623Z,97.87
2019-01-11T05:45:16.014Z,89.07
2019-01-11T05:47:44.567Z,92.77
2019-01-11T05:50:16.245Z,91.07
2019-01-11T05:52:44.751Z,89.97
2019-01-11T05:55:14.865Z,78.77
2019-01-11T05:57:45.635Z,71.43
2019-01-11T06:00:14.340Z,77.70
2019-01-11T06:02:42.787Z,70.40
2019-01-11T06:05:12.208Z,78.27
2019-01-11T06:07:42.239Z,76.73
2019-01-11T06:10:13.731Z,72.37
2019-01-11T06:12:42.796Z,78.50
2019-01-11T06:15:11.575Z,80.77
2019-01-11T06:17:40.107Z,78.23
2019-01-11T06:20:12.063Z,77.50
2019-01-11T06:22:40.983Z,66.27
2019-01-11T06:25:09.380Z,79.83
2019-01-11T06:27:38.576Z,70.67
2019-01-11T06:30:10.304Z,75.97
2019-01-11T06:32:38.691Z,70.27
2019-01-11T06:35:07.192Z,71.03
2019-01-11T06:37:35.962Z,67.57
2019-01-11T06:40:07.093Z,73.47
2019-01-11T06:42:35.594Z,72.50
2019-01-11T06:45:06.211Z,74.97
2019-01-11T06:47:34.788Z,72.90
2019-01-11T06:50:05.113Z,70.97
2019-01-11T06:52:33.669Z,73.67
2019-01-11T06:55:02.104Z,74.80
2019-01-11T06:57:30.662Z,80.63
2019-01-11T07:00:00.324Z,92.70
2019-01-11T07:02:28.798Z,84.47
2019-01-11T07:04:57.236Z,90.70
2019-01-11T07:07:25.644Z,91.60
2019-01-11T07:09:54.675Z,81.37
2019-01-11T07:12:23.484Z,78.50
2019-01-11T07:14:52.148Z,85.00
2019-01-11T07:17:20.567Z,85.27
2019-01-11T07:19:50.271Z,87.13
2019-01-11T07:22:18.676Z,85.20
2019-01-11T07:24:47.310Z,85.67
2019-01-11T07:27:15.788Z,106.00
2019-01-11T07:29:44.413Z,87.87
2019-01-11T07:32:13.969Z,95.27
2019-01-11T07:34:42.477Z,97.67
2019-01-11T07:37:11.039Z,98.90
2019-01-11T07:39:39.730Z,89.30
2019-01-11T07:42:08.240Z,102.00
2019-01-11T07:44:36.802Z,94.47
2019-01-11T07:47:05.472Z,102.93
2019-01-11T07:49:34.060Z,100.23
2019-01-11T07:52:02.460Z,103.07
2019-01-11T07:54:30.979Z,94.70
2019-01-11T07:56:59.703Z,92.37
2019-01-11T07:59:28.209Z,91.80
2019-01-11T08:01:57.683Z,87.60
2019-01-11T08:04:26.490Z,99.63
2019-01-11T08:06:54.879Z,89.07
2019-01-11T08:09:23.495Z,97.37
2019-01-11T08:11:52.132Z,95.30
2019-01-11T08:14:20.794Z,93.27
2019-01-11T08:16:50.905Z,100.63
2019-01-11T08:19:19.483Z,86.63
2019-01-11T08:21:47.974Z,88.53
2019-01-11T08:24:17.381Z,92.20
2019-01-11T08:26:46.594Z,87.80
2019-01-11T08:29:15.270Z,89.90
2019-01-11T08:31:44.236Z,86.40
2019-01-11T08:34:13.418Z,95.33
2019-01-11T08:36:41.815Z,90.13
2019-01-11T08:39:10.283Z,90.07
2019-01-11T08:41:39.267Z,84.40
2019-01-11T08:44:07.852Z,86.57
2019-01-11T08:46:36.771Z,89.50
2019-01-11T08:49:05.271Z,86.40
2019-01-11T08:51:33.898Z,85.63
2019-01-11T08:54:02.364Z,78.77
2019-01-11T08:56:30.845Z,77.67
2019-01-11T08:58:59.377Z,77.60
2019-01-11T09:01:28.055Z,75.60
2019-01-11T09:03:57.521Z,78.27
2019-01-11T09:06:26.185Z,71.97
2019-01-11T09:08:54.580Z,69.83
2019-01-11T09:11:23.480Z,76.83
2019-01-11T09:13:51.636Z,75.63
2019-01-11T09:16:20.812Z,63.87
2019-01-11T09:18:49.719Z,69.70
2019-01-11T09:21:18.146Z,66.37
2019-01-11T09:23:46.539Z,61.87
2019-01-11T09:26:15.139Z,68.63
2019-01-11T09:28:44.012Z,66.80
2019-01-11T09:31:12.739Z,68.23
2019-01-11T09:33:41.434Z,65.83
2019-01-11T09:36:09.996Z,75.20
2019-01-11T09:38:38.659Z,65.53
2019-01-11T09:41:08.521Z,68.17
2019-01-11T09:43:36.915Z,70.57
2019-01-11T09:46:05.591Z,72.73
2019-01-11T09:48:34.451Z,69.97
2019-01-11T09:51:03.113Z,68.37
2019-01-11T09:53:31.634Z,59.93
2019-01-11T09:56:00.559Z,63.70
2019-01-11T09:58:29.131Z,56.17
2019-01-11T10:00:59.300Z,57.90
2019-01-11T10:03:27.886Z,57.67
2019-01-11T10:05:57.408Z,50.97
2019-01-11T10:08:25.792Z,51.10
2019-01-11T10:10:54.692Z,53.03
2019-01-11T10:13:23.347Z,51.50
2019-01-11T10:15:52.006Z,52.60
2019-01-11T10:18:20.436Z,51.27
2019-01-11T10:20:50.000Z,55.00
2019-01-11T10:23:18.547Z,49.40
2019-01-11T10:25:47.298Z,50.13
2019-01-11T10:28:15.857Z,48.30
2019-01-11T10:30:44.598Z,48.27
2019-01-11T10:33:13.004Z,50.37
2019-01-11T10:35:41.873Z,46.57
2019-01-11T10:38:10.820Z,47.60
2019-01-11T10:40:39.526Z,46.30
2019-01-11T10:43:08.060Z,46.50
2019-01-11T10:45:36.618Z,50.60
2019-01-11T10:48:05.290Z,48.77
2019-01-11T10:50:33.844Z,48.17
2019-01-11T10:53:02.555Z,47.07
2019-01-11T10:55:31.103Z,55.07
2019-01-11T10:57:59.928Z,50.63
2019-01-11T11:00:28.723Z,49.50
2019-01-11T11:02:57.176Z,53.33
2019-01-11T11:05:25.915Z,50.03
2019-01-11T11:07:55.508Z,48.23
2019-01-11T11:10:24.431Z,55.27
2019-01-11T11:12:53.212Z,48.60
2019-01-11T11:15:21.987Z,47.33
2019-01-11T11:17:50.980Z,53.60
2019-01-11T11:20:19.644Z,48.60
2019-01-11T11:22:48.662Z,50.50
2019-01-11T11:25:19.410Z,53.00
2019-01-11T11:27:48.076Z,51.43
2019-01-11T11:30:18.203Z,51.80
2019-01-11T11:32:57.113Z,56.97
2019-01-11T11:35:25.646Z,54.60
2019-01-11T11:37:54.855Z,53.40
2019-01-11T11:40:23.977Z,57.10
2019-01-11T11:42:52.378Z,54.97
2019-01-11T11:45:21.179Z,59.63
2019-01-11T11:47:49.752Z,55.27
2019-01-11T11:50:18.148Z,48.80
2019-01-11T11:52:46.548Z,56.30
2019-01-11T11:55:14.980Z,60.87
2019-01-11T11:57:43.989Z,57.70
2019-01-11T12:00:20.751Z,55.10
2019-01-11T12:02:49.264Z,60.80
2019-01-11T12:05:18.232Z,57.37
2019-01-11T12:07:47.209Z,50.70
2019-01-11T12:10:16.920Z,52.93
2019-01-11T12:12:45.319Z,52.30
2019-01-11T12:15:15.122Z,52.43
2019-01-11T12:17:43.590Z,50.40
2019-01-11T12:20:17.770Z,54.00
2019-01-11T12:22:46.364Z,53.63
2019-01-11T12:25:15.241Z,57.60
2019-01-11T12:27:43.886Z,54.83
2019-01-11T12:30:14.459Z,55.23
2019-01-11T12:32:43.293Z,50.60
2019-01-11T12:35:11.971Z,55.67
2019-01-11T12:37:40.577Z,54.60
2019-01-11T12:40:11.650Z,56.17
2019-01-11T12:42:40.126Z,52.60
2019-01-11T12:45:11.107Z,55.47
2019-01-11T12:47:39.669Z,55.47
2019-01-11T12:50:14.189Z,55.93
2019-01-11T12:52:42.638Z,53.37
2019-01-11T12:55:11.471Z,61.10
2019-01-11T12:57:40.110Z,55.80
2019-01-11T13:00:16.742Z,57.40
2019-01-11T13:02:45.205Z,59.23
2019-01-11T13:05:16.037Z,57.40
2019-01-11T13:07:44.474Z,71.83
2019-01-11T13:10:15.266Z,65.50
2019-01-11T13:12:44.737Z,68.37
2019-01-11T13:15:16.175Z,61.67
2019-01-11T13:17:44.572Z,59.97
2019-01-11T13:20:15.252Z,64.17
2019-01-11T13:22:44.129Z,52.87
2019-01-11T13:25:13.030Z,56.33
2019-01-11T13:27:42.328Z,55.23
2019-01-11T13:30:13.530Z,51.93
2019-01-11T13:32:42.448Z,48.97
2019-01-11T13:35:11.472Z,57.73
2019-01-11T13:37:40.167Z,54.33
2019-01-11T13:40:17.906Z,44.47
2019-01-11T13:42:48.056Z,44.33
2019-01-11T13:45:20.027Z,46.33
2019-01-11T13:47:50.130Z,40.73
2019-01-11T13:50:37.256Z,41.70
2019-01-11T13:53:08.074Z,46.57
2019-01-11T13:55:37.551Z,45.37
2019-01-11T13:58:06.669Z,45.37
2019-01-11T14:00:37.464Z,47.43
2019-01-11T14:03:09.999Z,36.97
2019-01-11T14:05:41.755Z,39.83
2019-01-11T14:08:10.834Z,44.90
2019-01-11T14:10:39.572Z,65.47
2019-01-11T14:13:07.947Z,78.33
2019-01-11T14:15:37.778Z,46.30
2019-01-11T14:18:06.768Z,46.03
2019-01-11T14:20:36.156Z,28.77
2019-01-11T14:23:04.921Z,55.83
2019-01-11T14:25:35.587Z,52.13
2019-01-11T14:28:04.664Z,63.57
2019-01-11T14:30:33.112Z,166.33
2019-01-11T14:33:01.517Z,183.40
2019-01-11T14:35:30.300Z,164.50
2019-01-11T14:37:59.428Z,155.67
2019-01-11T14:40:28.088Z,166.60
2019-01-11T14:42:57.591Z,170.17
2019-01-11T14:45:26.043Z,221.77
2019-01-11T14:47:54.436Z,191.27
2019-01-11T14:50:24.166Z,126.57
2019-01-11T14:52:55.528Z,103.10
2019-01-11T14:55:24.107Z,106.13
2019-01-11T14:57:53.784Z,157.60
2019-01-11T15:00:22.936Z,158.43
2019-01-11T15:02:51.338Z,124.03
2019-01-11T15:05:21.077Z,99.77
2019-01-11T15:07:49.867Z,86.20
2019-01-11T15:10:19.851Z,90.03
2019-01-11T15:12:49.155Z,180.80
2019-01-11T15:15:19.226Z,151.87
2019-01-11T15:17:52.436Z,505.40
2019-01-11T15:20:27.775Z,285.43
2019-01-11T15:22:58.746Z,230.70
2019-01-11T15:25:27.144Z,247.90
2019-01-11T15:27:57.439Z,197.00
2019-01-11T15:30:26.697Z,228.10
2019-01-11T15:32:55.725Z,192.33
2019-01-11T15:35:24.615Z,171.10
2019-01-11T15:37:55.205Z,167.57
2019-01-11T15:40:26.030Z,238.07
2019-01-11T15:42:55.225Z,191.87
2019-01-11T15:45:23.981Z,207.27
2019-01-11T15:47:54.458Z,192.03
2019-01-11T15:50:45.735Z,158.57
2019-01-11T15:53:20.942Z,156.47
2019-01-11T15:55:51.748Z,154.20
2019-01-11T15:58:22.058Z,172.20
2019-01-11T16:00:51.999Z,246.03
2019-01-11T16:03:23.781Z,266.13
2019-01-11T16:06:12.048Z,162.50
2019-01-11T16:08:44.189Z,171.70
2019-01-11T16:11:16.091Z,175.10
2019-01-11T16:13:47.977Z,164.90
2019-01-11T16:16:18.814Z,193.17
2019-01-11T16:18:48.178Z,191.20
2019-01-11T16:21:17.060Z,324.20
2019-01-11T16:23:47.436Z,273.90
2019-01-11T16:26:17.525Z,265.13
2019-01-11T16:28:47.045Z,242.97
2019-01-11T16:31:18.357Z,277.63
2019-01-11T16:33:49.140Z,199.77
2019-01-11T16:36:19.376Z,268.40
2019-01-11T16:38:49.830Z,198.27
2019-01-11T16:41:19.996Z,177.73
2019-01-11T16:43:50.861Z,171.50
2019-01-11T16:46:19.834Z,196.37
2019-01-11T16:48:48.836Z,229.97
2019-01-11T16:51:17.448Z,272.57
2019-01-11T16:53:46.922Z,251.97
2019-01-11T16:56:17.992Z,227.93
2019-01-11T16:58:48.109Z,244.20
2019-01-11T17:01:17.103Z,240.07
2019-01-11T17:03:47.812Z,212.53
2019-01-11T17:06:23.003Z,228.50
2019-01-11T17:08:54.828Z,195.17
2019-01-11T17:11:29.060Z,209.20
2019-01-11T17:14:00.805Z,239.33
2019-01-11T17:16:54.379Z,218.10
2019-01-11T17:19:11.514Z,169.80
2019-01-11T17:21:46.562Z,166.70
2019-01-11T17:24:22.720Z,193.70
2019-01-11T17:26:58.330Z,177.90
2019-01-11T17:29:28.581Z,156.10
2019-01-11T17:32:03.557Z,203.20
2019-01-11T17:34:37.563Z,221.80
2019-01-11T17:37:11.589Z,198.50
2019-01-11T17:39:44.502Z,157.57
2019-01-11T17:42:23.363Z,90.27
2019-01-11T17:44:55.345Z,76.53
2019-01-11T17:47:40.003Z,94.93
2019-01-11T17:50:14.151Z,53.67
2019-01-11T17:52:46.448Z,44.30
2019-01-11T17:55:21.298Z,42.27
2019-01-11T17:57:52.239Z,137.43
2019-01-11T18:00:28.483Z,73.13
2019-01-11T18:02:58.540Z,127.90
2019-01-11T18:05:36.136Z,97.23
2019-01-11T18:08:11.543Z,86.70
2019-01-11T18:10:44.399Z,89.10
2019-01-11T18:13:18.248Z,108.93
2019-01-11T18:15:47.493Z,40.83
2019-01-11T18:18:19.100Z,82.57
2019-01-11T18:20:53.241Z,56.77
2019-01-11T18:23:26.480Z,45.23
2019-01-11T18:25:57.789Z,39.23
2019-01-11T18:28:29.522Z,44.23
2019-01-11T18:31:00.188Z,43.50
2019-01-11T18:33:33.260Z,43.17
2019-01-11T18:36:04.744Z,34.70
2019-01-11T18:38:34.854Z,22.00
2019-01-11T18:41:06.744Z,114.90
2019-01-11T18:43:38.757Z,69.77
2019-01-11T18:46:08.379Z,38.17
2019-01-11T18:48:41.750Z,52.97
2019-01-11T18:51:14.090Z,44.43
2019-01-11T18:53:49.139Z,107.63
2019-01-11T18:56:28.700Z,63.37
2019-01-11T18:58:59.548Z,100.77
2019-01-11T19:01:29.580Z,60.20
2019-01-11T19:04:02.123Z,150.00
2019-01-11T19:06:33.387Z,113.07
2019-01-11T19:09:01.931Z,37.50
2019-01-11T19:11:32.152Z,25.77
2019-01-11T19:14:06.260Z,23.27
2019-01-11T19:16:38.268Z,19.47
2019-01-11T19:19:07.386Z,14.87
2019-01-11T19:21:36.040Z,16.40
2019-01-11T19:24:04.788Z,17.83
2019-01-11T19:26:34.411Z,18.50
2019-01-11T19:29:07.875Z,18.67
2019-01-11T19:31:36.884Z,18.70
2019-01-11T19:34:05.985Z,26.93
2019-01-11T19:36:34.756Z,18.90
2019-01-11T19:39:04.101Z,20.00
2019-01-11T19:41:33.000Z,20.20
2019-01-11T19:44:01.619Z,14.77
2019-01-11T19:46:31.122Z,15.40
2019-01-11T19:49:00.357Z,11.07
2019-01-11T19:51:28.929Z,12.30
2019-01-11T19:53:57.335Z,14.57
2019-01-11T19:56:29.700Z,12.40
2019-01-11T19:59:00.157Z,11.07
2019-01-11T20:01:31.006Z,18.37
2019-01-11T20:03:59.667Z,24.03
2019-01-11T20:06:28.331Z,15.83
2019-01-11T20:08:56.786Z,13.03
2019-01-11T20:11:25.330Z,15.97
2019-01-11T20:13:54.426Z,16.37
2019-01-11T20:16:23.485Z,14.03
2019-01-11T20:18:52.145Z,16.10
2019-01-11T20:21:20.593Z,32.23
2019-01-11T20:23:49.012Z,29.87
2019-01-11T20:26:19.105Z,14.40
2019-01-11T20:28:49.462Z,47.30
2019-01-11T20:31:18.005Z,67.00
2019-01-11T20:33:46.859Z,141.40
2019-01-11T20:36:15.583Z,349.27
2019-01-11T20:38:44.763Z,289.63
2019-01-11T20:41:13.160Z,151.90
2019-01-11T20:43:42.051Z,26.77
2019-01-11T20:46:10.547Z,54.60
2019-01-11T20:48:38.961Z,43.13
2019-01-11T20:51:07.913Z,12.17
2019-01-11T20:53:41.561Z,15.70
2019-01-11T20:56:06.576Z,25.73
2019-01-11T20:58:35.193Z,25.47
2019-01-11T21:01:05.429Z,19.17
2019-01-11T21:03:33.827Z,16.63
2019-01-11T21:06:02.877Z,30.23
2019-01-11T21:08:31.576Z,32.23
2019-01-11T21:10:59.924Z,19.60
2019-01-11T21:13:28.684Z,22.73
2019-01-11T21:15:57.592Z,19.07
2019-01-11T21:18:26.176Z,33.83
2019-01-11T21:20:54.736Z,27.37
2019-01-11T21:23:23.322Z,12.00
2019-01-11T21:25:51.807Z,12.97
2019-01-11T21:28:21.458Z,28.20
2019-01-11T21:30:49.944Z,30.53
2019-01-11T21:33:18.335Z,36.20
2019-01-11T21:35:46.844Z,30.47
2019-01-11T21:38:15.724Z,189.40
2019-01-11T21:40:44.539Z,109.90
2019-01-11T21:43:13.068Z,90.70
2019-01-11T21:45:41.460Z,52.37
2019-01-11T21:48:10.191Z,43.87
2019-01-11T21:50:39.217Z,31.57
2019-01-11T21:53:07.615Z,19.90
2019-01-11T21:55:36.019Z,22.70
2019-01-11T21:58:04.705Z,7.97
2019-01-11T22:00:36.203Z,15.83
2019-01-11T22:03:06.071Z,27.33
2019-01-11T22:05:34.572Z,17.73
2019-01-11T22:08:03.077Z,16.63
2019-01-11T22:10:31.619Z,13.90
2019-01-11T22:13:00.519Z,36.33
2019-01-11T22:15:29.120Z,219.10
2019-01-11T22:17:57.759Z,47.83
2019-01-11T22:20:26.555Z,40.53
2019-01-11T22:22:55.036Z,46.63
2019-01-11T22:25:24.083Z,38.07
2019-01-11T22:27:52.960Z,16.70
2019-01-11T22:30:30.055Z,30.73
2019-01-11T22:32:54.507Z,48.83
2019-01-11T22:35:23.210Z,44.87
2019-01-11T22:37:51.650Z,23.47
2019-01-11T22:40:22.180Z,17.33
2019-01-11T22:42:53.439Z,18.63
2019-01-11T22:45:21.842Z,13.50
2019-01-11T22:47:50.332Z,14.80
2019-01-11T22:50:18.771Z,12.23
2019-01-11T22:52:47.159Z,15.27
2019-01-11T22:55:17.539Z,11.40
2019-01-11T22:57:45.996Z,11.03
2019-01-11T23:00:33.928Z,8.43
2019-01-11T23:03:02.928Z,7.13
2019-01-11T23:05:31.386Z,7.50
2019-01-11T23:07:59.784Z,8.63
2019-01-11T23:11:01.868Z,7.70
2019-01-11T23:13:30.950Z,10.20
2019-01-11T23:16:00.131Z,9.67
2019-01-11T23:18:28.565Z,11.60
2019-01-11T23:20:57.338Z,7.43
2019-01-11T23:23:25.758Z,7.73
2019-01-11T23:25:54.747Z,8.10
2019-01-11T23:28:23.508Z,6.97
2019-01-11T23:30:52.066Z,7.07
2019-01-11T23:33:21.739Z,8.83
2019-01-11T23:35:50.220Z,9.73
2019-01-11T23:38:19.834Z,8.00
2019-01-11T23:40:48.254Z,10.30
2019-01-11T23:43:16.641Z,5.80
2019-01-11T23:45:45.028Z,8.03
2019-01-11T23:48:13.449Z,8.70
2019-01-11T23:50:41.840Z,6.70
2019-01-11T23:53:10.920Z,9.77
2019-01-11T23:55:39.344Z,8.57
2019-01-11T23:58:08.410Z,9.10
